Time;durP1;ratioP1;P1;durP2;ratioP2;P2;SDS_P1;SDS_P2;PMS_P1;PMS_P2;Temp;Humidity;BMP_temperature;BMP_pressure;BME280_temperature;BME280_humidity;BME280_pressure;Samples;Min_cycle;Max_cycle;Signal;HPM_P1;HPM_P2
2023/12/11 06:27:00;;;;;;;0.10;0.10;;;12.20;90.80;;;;;;5891124;23;20108;-79
2023/12/11 06:29:26;;;;;;;0.20;0.20;;;12.20;90.80;;;;;;4891345;29;20115;-79
2023/12/11 06:31:51;;;;;;;0.20;0.20;;;12.30;90.70;;;;;;4899783;29;20024;-77
2023/12/11 06:34:17;;;;;;;0.10;0.10;;;12.20;90.60;;;;;;4898268;29;20407;-75
2023/12/11 06:36:43;;;;;;;0.22;0.10;;;12.20;90.70;;;;;;4882218;29;20467;-78
2023/12/11 06:39:08;;;;;;;0.10;0.10;;;12.20;90.50;;;;;;4876610;29;20037;-77
2023/12/11 06:41:37;;;;;;;0.20;0.20;;;12.20;90.60;;;;;;4891242;29;20492;-76
2023/12/11 06:44:03;;;;;;;0.10;0.10;;;12.20;90.50;;;;;;4882112;29;20035;-79
2023/12/11 06:46:29;;;;;;;0.10;0.10;;;12.20;90.60;;;;;;4882350;29;20041;-79
2023/12/11 06:48:56;;;;;;;0.10;0.10;;;12.20;90.50;;;;;;4881515;29;20025;-77
2023/12/11 06:51:23;;;;;;;0.10;0.10;;;12.10;90.50;;;;;;4909056;29;20131;-77
2023/12/11 06:53:49;;;;;;;0.10;0.10;;;12.20;90.50;;;;;;4898366;29;20115;-78
2023/12/11 06:56:18;;;;;;;0.10;0.10;;;12.10;90.30;;;;;;4903418;29;20084;-78
2023/12/11 06:58:45;;;;;;;0.10;0.10;;;12.20;90.50;;;;;;4903174;29;20035;-76
2023/12/11 07:01:11;;;;;;;0.20;0.20;;;12.10;90.50;;;;;;4895151;29;20090;-82
2023/12/11 07:03:38;;;;;;;0.10;0.10;;;12.10;90.50;;;;;;4896536;29;20062;-90
2023/12/11 07:06:04;;;;;;;0.20;0.20;;;12.10;90.30;;;;;;4878920;29;20040;-89
2023/12/11 07:08:30;;;;;;;0.10;0.10;;;12.10;90.30;;;;;;4885673;29;20040;-90
2023/12/11 07:10:56;;;;;;;0.10;0.10;;;12.10;90.40;;;;;;4884366;29;20032;-89
2023/12/11 07:13:21;;;;;;;0.10;0.10;;;12.10;90.30;;;;;;4882617;29;20036;-89
2023/12/11 07:15:47;;;;;;;0.10;0.10;;;12.10;90.40;;;;;;4901994;29;20032;-91
2023/12/11 07:18:13;;;;;;;0.10;0.10;;;12.10;90.40;;;;;;4887545;29;20065;-90
2023/12/11 07:20:41;;;;;;;0.10;0.10;;;12.00;90.40;;;;;;4901200;29;20168;-89
2023/12/11 07:23:07;;;;;;;0.17;0.15;;;12.00;90.30;;;;;;4885504;29;20079;-79
2023/12/11 07:25:33;;;;;;;0.10;0.10;;;12.00;90.40;;;;;;4900855;29;20031;-79
2023/12/11 07:27:59;;;;;;;0.10;0.10;;;12.00;90.50;;;;;;4899913;29;20468;-79
2023/12/11 07:30:26;;;;;;;0.22;0.20;;;12.00;90.40;;;;;;4900570;29;20092;-79
2023/12/11 07:32:52;;;;;;;0.10;0.10;;;12.00;90.40;;;;;;4902635;29;20036;-78
2023/12/11 07:35:18;;;;;;;0.10;0.10;;;12.00;90.60;;;;;;4901459;29;20039;-79
2023/12/11 07:37:44;;;;;;;0.10;0.10;;;11.90;90.30;;;;;;4902768;29;20036;-78
2023/12/11 07:40:10;;;;;;;0.10;0.10;;;11.90;90.30;;;;;;4906109;29;20029;-79
2023/12/11 07:42:36;;;;;;;0.10;0.10;;;12.00;90.50;;;;;;4920303;29;20020;-79
2023/12/11 07:45:06;;;;;;;0.10;0.10;;;12.00;90.50;;;;;;4885788;29;20043;-79
2023/12/11 07:47:32;;;;;;;0.17;0.17;;;12.00;90.40;;;;;;4882219;29;20037;-78
2023/12/11 07:49:58;;;;;;;0.17;0.17;;;12.00;90.50;;;;;;4871623;29;20041;-79
2023/12/11 07:52:27;;;;;;;0.10;0.10;;;11.90;90.40;;;;;;4882428;29;20040;-79
2023/12/11 07:54:53;;;;;;;0.10;0.10;;;11.90;90.40;;;;;;4882226;29;20188;-79
2023/12/11 07:57:19;;;;;;;0.10;0.10;;;11.90;90.50;;;;;;4882655;29;20064;-79
2023/12/11 07:59:44;;;;;;;0.10;0.10;;;11.90;90.40;;;;;;4889543;29;20045;-79
2023/12/11 08:02:10;;;;;;;0.13;0.13;;;12.00;90.50;;;;;;4882482;29;20129;-79
2023/12/11 08:04:39;;;;;;;0.15;0.15;;;11.90;90.40;;;;;;4879966;29;20388;-79
2023/12/11 08:07:04;;;;;;;0.10;0.10;;;12.00;90.40;;;;;;4901172;29;20032;-78
2023/12/11 08:09:34;;;;;;;0.10;0.10;;;12.00;90.50;;;;;;4897328;29;20060;-79
2023/12/11 08:12:00;;;;;;;0.20;0.20;;;11.90;90.30;;;;;;4897880;29;20040;-79
2023/12/11 08:14:26;;;;;;;0.10;0.10;;;11.90;90.50;;;;;;4899965;29;20043;-78
2023/12/11 08:16:51;;;;;;;0.15;0.15;;;11.90;90.40;;;;;;4900118;29;20186;-78
2023/12/11 08:19:17;;;;;;;0.10;0.10;;;11.90;90.30;;;;;;4898665;29;20084;-78
2023/12/11 08:21:43;;;;;;;0.20;0.20;;;12.00;90.40;;;;;;4900785;29;20032;-79
2023/12/11 08:24:08;;;;;;;0.10;0.10;;;12.00;90.50;;;;;;4899435;29;20029;-79
2023/12/11 08:26:34;;;;;;;0.10;0.10;;;12.00;90.40;;;;;;4897155;29;20036;-79
2023/12/11 08:28:59;;;;;;;0.10;0.10;;;12.00;90.40;;;;;;4900309;29;20055;-79
2023/12/11 08:31:25;;;;;;;0.10;0.10;;;12.10;90.40;;;;;;4899811;29;20025;-79
2023/12/11 08:33:51;;;;;;;0.10;0.10;;;12.10;90.20;;;;;;4883383;29;20068;-79
2023/12/11 08:36:16;;;;;;;0.15;0.15;;;12.10;90.30;;;;;;4897986;29;20152;-78
2023/12/11 08:38:42;;;;;;;0.10;0.10;;;12.20;90.40;;;;;;4899851;29;20092;-79
2023/12/11 08:41:07;;;;;;;0.10;0.10;;;12.20;90.50;;;;;;4878691;29;20499;-78
2023/12/11 08:43:33;;;;;;;0.20;0.20;;;12.20;90.40;;;;;;4897915;29;20155;-79
2023/12/11 08:45:59;;;;;;;0.10;0.10;;;12.20;90.50;;;;;;4884605;29;20024;-79
2023/12/11 08:48:24;;;;;;;0.20;0.20;;;12.20;90.30;;;;;;4900160;29;20029;-78
2023/12/11 08:50:52;;;;;;;0.10;0.10;;;12.30;90.40;;;;;;4882705;29;20071;-79
2023/12/11 08:53:19;;;;;;;0.13;0.13;;;12.30;90.50;;;;;;4883268;29;20123;-78
2023/12/11 08:55:45;;;;;;;0.10;0.10;;;12.40;90.50;;;;;;4882339;29;20043;-78
2023/12/11 08:58:10;;;;;;;0.20;0.20;;;12.50;90.40;;;;;;4898156;29;20036;-79
2023/12/11 09:00:36;;;;;;;0.10;0.10;;;12.50;90.50;;;;;;4896556;29;20025;-79
2023/12/11 09:03:01;;;;;;;0.10;0.10;;;12.60;90.50;;;;;;4882842;29;20447;-79
2023/12/11 09:05:27;;;;;;;0.10;0.10;;;12.60;90.40;;;;;;4894334;29;20032;-78
2023/12/11 09:07:55;;;;;;;0.15;0.15;;;12.70;90.60;;;;;;4899720;29;20028;-79
2023/12/11 09:10:21;;;;;;;0.10;0.10;;;12.80;90.40;;;;;;4900100;29;20020;-79
2023/12/11 09:12:46;;;;;;;0.10;0.10;;;12.80;90.30;;;;;;4879049;29;20108;-79
2023/12/11 09:15:12;;;;;;;0.10;0.10;;;12.80;90.30;;;;;;4900514;29;20032;-79
2023/12/11 09:17:38;;;;;;;0.10;0.10;;;12.90;90.40;;;;;;4898491;29;20044;-78
2023/12/11 09:20:06;;;;;;;0.10;0.10;;;12.90;90.40;;;;;;4890415;29;20412;-79
2023/12/11 09:22:31;;;;;;;0.10;0.10;;;13.00;90.40;;;;;;4883829;29;20075;-79
2023/12/11 09:24:57;;;;;;;0.13;0.13;;;13.00;90.30;;;;;;4891959;29;20029;-79
2023/12/11 09:27:23;;;;;;;0.10;0.10;;;13.10;90.30;;;;;;4881440;29;20120;-79
2023/12/11 09:29:49;;;;;;;0.10;0.10;;;13.10;90.10;;;;;;4897133;29;20040;-79
2023/12/11 09:32:15;;;;;;;0.10;0.10;;;13.10;90.00;;;;;;4900483;29;20032;-78
2023/12/11 09:34:41;;;;;;;0.10;0.10;;;13.10;90.10;;;;;;4899829;29;20021;-79
2023/12/11 09:37:07;;;;;;;0.10;0.10;;;13.10;90.10;;;;;;4897425;29;20039;-79
2023/12/11 09:39:33;;;;;;;0.15;0.15;;;13.10;90.00;;;;;;4899549;29;20040;-79
2023/12/11 09:42:00;;;;;;;0.10;0.10;;;13.10;90.10;;;;;;4887901;29;20396;-79
2023/12/11 09:44:26;;;;;;;0.10;0.10;;;13.20;90.00;;;;;;4880423;29;20087;-79
2023/12/11 09:46:57;;;;;;;0.10;0.10;;;13.20;90.00;;;;;;4881699;29;20084;-79
2023/12/11 09:49:23;;;;;;;0.10;0.10;;;13.30;89.80;;;;;;4881502;29;20036;-79
2023/12/11 09:51:48;;;;;;;0.10;0.10;;;13.30;89.90;;;;;;4880739;29;20033;-79
2023/12/11 09:54:14;;;;;;;0.10;0.10;;;13.30;89.90;;;;;;4880246;29;20496;-79
2023/12/11 09:56:43;;;;;;;0.10;0.10;;;13.40;89.90;;;;;;4881432;29;20033;-79
2023/12/11 09:59:10;;;;;;;0.20;0.20;;;13.40;89.90;;;;;;4889453;29;20090;-79
2023/12/11 10:01:36;;;;;;;0.10;0.10;;;13.40;89.80;;;;;;4883383;29;20032;-80
2023/12/11 10:04:02;;;;;;;0.10;0.10;;;13.50;89.90;;;;;;4883599;29;20025;-79
2023/12/11 10:06:28;;;;;;;0.10;0.10;;;13.50;89.80;;;;;;4879686;29;20081;-79
2023/12/11 10:08:54;;;;;;;0.10;0.10;;;13.50;89.80;;;;;;4872655;29;20110;-79
2023/12/11 10:11:22;;;;;;;0.10;0.10;;;13.50;89.80;;;;;;4880151;29;20119;-79
2023/12/11 10:13:48;;;;;;;0.10;0.10;;;13.50;89.70;;;;;;4882792;29;20024;-79
2023/12/11 10:16:35;;;;;;;0.10;0.10;;;13.50;89.70;;;;;;4899165;29;20083;-79
2023/12/11 10:19:01;;;;;;;0.10;0.10;;;13.60;89.80;;;;;;4881483;29;20029;-79
2023/12/11 10:21:37;;;;;;;0.10;0.10;;;13.60;89.70;;;;;;4887883;29;20032;-79
2023/12/11 10:24:04;;;;;;;0.10;0.10;;;13.60;89.70;;;;;;4900178;29;20025;-79
2023/12/11 10:26:33;;;;;;;0.10;0.10;;;13.70;89.60;;;;;;4879578;29;20029;-79
2023/12/11 10:29:21;;;;;;;0.10;0.10;;;13.70;89.60;;;;;;4884644;29;20074;-79
2023/12/11 10:31:47;;;;;;;0.10;0.10;;;13.70;89.50;;;;;;4902591;29;20503;-80
2023/12/11 10:34:12;;;;;;;0.10;0.10;;;13.70;89.50;;;;;;4903747;29;20055;-79
2023/12/11 10:36:52;;;;;;;0.10;0.10;;;13.80;89.50;;;;;;4896501;29;20447;-80
2023/12/11 10:39:21;;;;;;;0.10;0.10;;;13.70;89.60;;;;;;4902548;29;20036;-79
2023/12/11 10:41:47;;;;;;;0.10;0.10;;;13.70;89.60;;;;;;4901480;29;20021;-79
2023/12/11 10:44:24;;;;;;;0.10;0.10;;;13.70;89.70;;;;;;4903726;29;20032;-79
2023/12/11 10:46:53;;;;;;;0.10;0.10;;;13.70;89.80;;;;;;4901803;29;20028;-81
2023/12/11 10:49:19;;;;;;;0.10;0.10;;;13.80;89.70;;;;;;4903606;29;20057;-78
2023/12/11 10:51:46;;;;;;;0.10;0.10;;;13.80;89.50;;;;;;4896486;29;20025;-81
2023/12/11 10:54:12;;;;;;;0.10;0.10;;;13.90;89.60;;;;;;4899226;29;20100;-79
2023/12/11 10:56:45;;;;;;;0.10;0.10;;;13.90;89.60;;;;;;4884765;29;20514;-81
2023/12/11 10:59:11;;;;;;;0.10;0.10;;;13.90;89.50;;;;;;4885611;29;20068;-80
2023/12/11 11:01:41;;;;;;;0.10;0.10;;;13.90;89.40;;;;;;4883662;29;20064;-81
2023/12/11 11:04:08;;;;;;;0.10;0.10;;;14.00;89.40;;;;;;4890817;29;20095;-81
2023/12/11 11:06:38;;;;;;;0.10;0.10;;;14.00;89.40;;;;;;4903255;29;20115;-78
2023/12/11 11:09:13;;;;;;;0.00;0.00;;;14.00;89.30;;;;;;4916019;29;20024;-79
2023/12/11 11:11:44;;;;;;;0.10;0.10;;;14.00;89.20;;;;;;4892935;29;20040;-79
2023/12/11 11:14:48;;;;;;;0.10;0.10;;;14.00;89.40;;;;;;4899960;29;20032;-79
2023/12/11 11:17:16;;;;;;;0.10;0.10;;;14.00;89.30;;;;;;4912115;29;20040;-79
2023/12/11 11:20:15;;;;;;;0.10;0.10;;;14.00;89.20;;;;;;4898067;29;20045;-79
2023/12/11 11:22:41;;;;;;;0.10;0.10;;;14.10;89.20;;;;;;4900348;29;20037;-79
2023/12/11 11:25:33;;;;;;;0.10;0.10;;;14.10;89.00;;;;;;4902734;29;20035;-80
2023/12/11 11:27:59;;;;;;;0.10;0.10;;;14.10;89.10;;;;;;4902605;29;20423;-80
2023/12/11 11:30:57;;;;;;;0.10;0.10;;;14.10;89.00;;;;;;4880145;29;20100;-81
2023/12/11 11:33:23;;;;;;;0.10;0.10;;;14.20;89.10;;;;;;4852678;29;20508;-80
2023/12/11 11:35:50;;;;;;;0.10;0.10;;;14.20;89.10;;;;;;4885304;29;20033;-80
2023/12/11 11:38:18;;;;;;;0.10;0.10;;;14.20;89.10;;;;;;4891021;29;20033;-81
2023/12/11 11:40:44;;;;;;;0.10;0.10;;;14.20;88.90;;;;;;4901843;29;20067;-81
2023/12/11 11:43:11;;;;;;;0.10;0.10;;;14.20;88.90;;;;;;4885209;29;20037;-81
2023/12/11 11:45:37;;;;;;;0.10;0.10;;;14.20;88.80;;;;;;4902930;29;20021;-80
2023/12/11 11:48:03;;;;;;;0.10;0.10;;;14.30;88.90;;;;;;4892021;29;20404;-81
2023/12/11 11:50:29;;;;;;;0.10;0.10;;;14.30;88.80;;;;;;4867322;29;20025;-81
2023/12/11 11:53:01;;;;;;;0.10;0.10;;;14.30;88.70;;;;;;4883906;29;20037;-81
2023/12/11 11:55:27;;;;;;;0.10;0.10;;;14.30;88.60;;;;;;4891108;29;20092;-81
2023/12/11 11:57:54;;;;;;;0.10;0.10;;;14.30;88.60;;;;;;4885769;29;20579;-81
2023/12/11 12:00:31;;;;;;;0.10;0.10;;;14.40;88.60;;;;;;4894245;29;20512;-81
2023/12/11 12:03:03;;;;;;;0.10;0.10;;;14.40;88.50;;;;;;4883646;29;20108;-81
2023/12/11 12:05:28;;;;;;;0.10;0.10;;;14.40;88.50;;;;;;4883699;29;20021;-81
2023/12/11 12:07:54;;;;;;;0.10;0.10;;;14.50;88.40;;;;;;4882332;29;20777;-81
2023/12/11 12:10:20;;;;;;;0.10;0.10;;;14.50;88.60;;;;;;4883403;29;20033;-81
2023/12/11 12:12:52;;;;;;;0.10;0.10;;;14.50;88.30;;;;;;4874447;29;20028;-80
2023/12/11 12:15:19;;;;;;;0.10;0.10;;;14.60;88.20;;;;;;4892778;29;20032;-81
2023/12/11 12:17:45;;;;;;;0.10;0.10;;;14.60;88.20;;;;;;4885336;29;20028;-79
2023/12/11 12:20:18;;;;;;;0.08;0.08;;;14.50;88.10;;;;;;4882794;29;20040;-79
2023/12/11 12:23:03;;;;;;;0.10;0.10;;;14.50;87.90;;;;;;4889267;29;20077;-77
2023/12/11 12:25:29;;;;;;;0.10;0.10;;;14.50;88.10;;;;;;4877456;29;20032;-79
2023/12/11 12:28:02;;;;;;;0.10;0.10;;;14.50;88.10;;;;;;4901286;29;20060;-80
2023/12/11 12:30:28;;;;;;;0.10;0.10;;;14.50;88.10;;;;;;4891439;29;20036;-80
2023/12/11 12:32:55;;;;;;;0.10;0.10;;;14.50;88.30;;;;;;4882694;29;20101;-79
2023/12/11 12:35:21;;;;;;;0.10;0.10;;;14.60;88.20;;;;;;4884533;29;20033;-79
2023/12/11 12:37:49;;;;;;;0.10;0.10;;;14.50;87.90;;;;;;4881109;29;20037;-79
2023/12/11 12:40:17;;;;;;;0.10;0.10;;;14.60;88.20;;;;;;4894451;29;20032;-79
2023/12/11 12:42:43;;;;;;;0.08;0.08;;;14.60;88.10;;;;;;4882449;29;20044;-79
2023/12/11 12:45:10;;;;;;;0.10;0.10;;;14.50;88.10;;;;;;4881881;29;20021;-80
2023/12/11 12:47:47;;;;;;;0.00;0.00;;;14.60;88.30;;;;;;4885529;29;20409;-79
2023/12/11 12:50:24;;;;;;;0.08;0.08;;;14.60;88.20;;;;;;4882855;29;20064;-80
2023/12/11 12:52:50;;;;;;;0.10;0.10;;;14.60;88.20;;;;;;4882284;29;20080;-80
2023/12/11 12:55:16;;;;;;;0.10;0.10;;;14.60;88.20;;;;;;4882583;29;20033;-80
2023/12/11 12:57:43;;;;;;;0.03;0.03;;;14.60;88.10;;;;;;4881303;29;20583;-79
2023/12/11 13:00:20;;;;;;;0.10;0.10;;;14.70;88.10;;;;;;4899643;29;20035;-80
2023/12/11 13:02:49;;;;;;;0.10;0.10;;;14.70;88.10;;;;;;4901060;29;20036;-78
2023/12/11 13:05:15;;;;;;;0.10;0.10;;;14.70;88.00;;;;;;4874491;29;20036;-81
2023/12/11 13:07:41;;;;;;;0.10;0.10;;;14.70;88.00;;;;;;4871363;29;20024;-81
2023/12/11 13:10:14;;;;;;;0.10;0.10;;;14.60;88.00;;;;;;4901140;29;20032;-81
2023/12/11 13:12:40;;;;;;;0.10;0.10;;;14.60;88.10;;;;;;4884222;29;20040;-81
2023/12/11 13:15:06;;;;;;;0.08;0.08;;;14.60;88.10;;;;;;4882069;29;20044;-81
2023/12/11 13:17:33;;;;;;;0.10;0.10;;;14.60;88.10;;;;;;4882618;29;20068;-81
2023/12/11 13:19:59;;;;;;;0.10;0.10;;;14.60;88.20;;;;;;4883611;29;20397;-81
2023/12/11 13:22:25;;;;;;;0.10;0.10;;;14.60;88.20;;;;;;4900507;29;20060;-81
2023/12/11 13:24:51;;;;;;;0.00;0.00;;;14.60;88.30;;;;;;4886610;29;20045;-81
2023/12/11 13:27:17;;;;;;;0.10;0.10;;;14.70;88.30;;;;;;4865013;29;20029;-81
2023/12/11 13:29:44;;;;;;;0.00;0.00;;;14.70;88.20;;;;;;4899678;29;20115;-81
2023/12/11 13:32:12;;;;;;;0.10;0.10;;;14.70;88.30;;;;;;4894024;29;20029;-81
2023/12/11 13:34:38;;;;;;;0.10;0.10;;;14.70;88.10;;;;;;4880683;29;20036;-81
2023/12/11 13:37:04;;;;;;;0.10;0.10;;;14.70;88.20;;;;;;4896769;29;20032;-81
2023/12/11 13:39:29;;;;;;;0.10;0.10;;;14.70;88.10;;;;;;4897588;29;20040;-81
2023/12/11 13:41:55;;;;;;;0.10;0.10;;;14.70;88.20;;;;;;4902132;29;20122;-81
2023/12/11 13:44:21;;;;;;;0.00;0.00;;;14.70;88.20;;;;;;4908260;29;20109;-81
2023/12/11 13:46:47;;;;;;;0.10;0.10;;;14.70;88.20;;;;;;4880721;29;20029;-81
2023/12/11 13:49:12;;;;;;;0.10;0.10;;;14.70;88.10;;;;;;4880764;29;20029;-81
2023/12/11 13:51:38;;;;;;;0.10;0.10;;;14.70;88.20;;;;;;4881336;29;20033;-81
2023/12/11 13:54:03;;;;;;;0.10;0.10;;;14.70;88.30;;;;;;4881619;29;20033;-81
2023/12/11 13:56:29;;;;;;;0.10;0.10;;;14.70;88.20;;;;;;4882200;29;20056;-81
2023/12/11 13:58:55;;;;;;;0.10;0.10;;;14.60;88.20;;;;;;4888638;29;20024;-81
2023/12/11 14:01:20;;;;;;;0.00;0.00;;;14.70;88.30;;;;;;4893559;29;20033;-81
2023/12/11 14:03:46;;;;;;;0.10;0.10;;;14.70;88.20;;;;;;4879429;29;20025;-81
2023/12/11 14:06:13;;;;;;;0.10;0.10;;;14.70;88.30;;;;;;4881643;29;20064;-81
2023/12/11 14:08:39;;;;;;;0.08;0.08;;;14.70;88.40;;;;;;4881440;29;20787;-81
2023/12/11 14:11:05;;;;;;;0.10;0.10;;;14.70;88.40;;;;;;4881285;29;20059;-79
2023/12/11 14:13:30;;;;;;;0.10;0.10;;;14.70;88.30;;;;;;4864751;29;20060;-81
2023/12/11 14:15:56;;;;;;;0.10;0.10;;;14.70;88.30;;;;;;4881587;29;20093;-81
2023/12/11 14:18:23;;;;;;;0.00;0.00;;;14.70;88.20;;;;;;4880982;29;20085;-81
2023/12/11 14:20:48;;;;;;;0.00;0.00;;;14.70;88.40;;;;;;4881734;29;20110;-81
2023/12/11 14:23:14;;;;;;;0.10;0.10;;;14.70;88.30;;;;;;4875012;29;20065;-81
2023/12/11 14:25:39;;;;;;;0.10;0.10;;;14.70;88.50;;;;;;4883442;29;20040;-80
2023/12/11 14:28:07;;;;;;;0.10;0.10;;;14.70;88.40;;;;;;4899694;29;20159;-81
2023/12/11 14:30:34;;;;;;;0.10;0.10;;;14.80;88.30;;;;;;4883313;29;20037;-81
2023/12/11 14:33:00;;;;;;;0.10;0.10;;;14.80;88.30;;;;;;4881489;29;20033;-81
2023/12/11 14:35:25;;;;;;;0.00;0.00;;;14.80;88.30;;;;;;4883331;29;20037;-81
2023/12/11 14:37:51;;;;;;;0.08;0.08;;;14.80;88.20;;;;;;4882805;29;20028;-81
2023/12/11 14:40:17;;;;;;;0.10;0.10;;;14.80;88.20;;;;;;4880353;29;20033;-80
2023/12/11 14:42:43;;;;;;;0.10;0.10;;;14.80;88.10;;;;;;4899732;29;20029;-86
2023/12/11 14:45:09;;;;;;;0.10;0.10;;;14.80;88.10;;;;;;4896757;29;20035;-88
2023/12/11 14:47:35;;;;;;;0.00;0.00;;;14.80;88.10;;;;;;4878583;29;20059;-88
2023/12/11 14:50:01;;;;;;;0.10;0.10;;;14.80;88.00;;;;;;4883067;29;20036;-88
2023/12/11 14:52:27;;;;;;;0.00;0.00;;;14.80;88.00;;;;;;4882623;29;20114;-89
2023/12/11 14:54:52;;;;;;;0.10;0.10;;;14.80;88.00;;;;;;4900059;29;20028;-87
2023/12/11 14:57:18;;;;;;;0.10;0.10;;;14.80;88.00;;;;;;4897597;29;20043;-87
2023/12/11 14:59:43;;;;;;;0.10;0.10;;;14.80;88.10;;;;;;4899442;29;20068;-88
2023/12/11 15:02:12;;;;;;;0.10;0.10;;;14.80;88.10;;;;;;4899392;29;20025;-88
2023/12/11 15:04:37;;;;;;;0.10;0.10;;;14.80;88.10;;;;;;4898238;29;20444;-86
2023/12/11 15:07:04;;;;;;;0.10;0.10;;;14.80;88.00;;;;;;4899314;29;20115;-88
2023/12/11 15:09:32;;;;;;;0.10;0.10;;;14.80;88.00;;;;;;4882645;29;20112;-86
2023/12/11 15:11:58;;;;;;;0.10;0.10;;;14.80;88.00;;;;;;4900365;29;20016;-87
2023/12/11 15:14:26;;;;;;;0.05;0.05;;;14.80;87.90;;;;;;4882577;29;20100;-88
2023/12/11 15:16:52;;;;;;;0.10;0.10;;;14.80;88.00;;;;;;4904349;29;20031;-87
2023/12/11 15:19:18;;;;;;;0.10;0.10;;;14.80;88.00;;;;;;4885308;29;20111;-88
2023/12/11 15:21:44;;;;;;;0.00;0.00;;;14.70;87.90;;;;;;4885019;29;20029;-87
2023/12/11 15:24:10;;;;;;;0.10;0.10;;;14.70;88.00;;;;;;4901522;29;20028;-87
2023/12/11 15:26:36;;;;;;;0.10;0.10;;;14.70;88.00;;;;;;4885047;29;20080;-87
2023/12/11 15:29:05;;;;;;;0.10;0.10;;;14.70;87.90;;;;;;4902006;29;20053;-87
2023/12/11 15:31:32;;;;;;;0.00;0.00;;;14.70;87.90;;;;;;4874245;29;20479;-86
2023/12/11 15:34:00;;;;;;;0.10;0.10;;;14.60;88.00;;;;;;4901478;29;20035;-87
2023/12/11 15:36:26;;;;;;;0.10;0.10;;;14.60;87.70;;;;;;4900071;29;20044;-87
2023/12/11 15:38:53;;;;;;;0.10;0.10;;;14.60;87.90;;;;;;4884366;29;20035;-80
2023/12/11 15:41:19;;;;;;;0.00;0.00;;;14.60;87.90;;;;;;4901073;29;20826;-80
2023/12/11 15:43:45;;;;;;;0.00;0.00;;;14.70;87.80;;;;;;4900416;29;20035;-82
2023/12/11 15:46:11;;;;;;;0.00;0.00;;;14.60;87.50;;;;;;4898251;29;20056;-85
2023/12/11 15:48:39;;;;;;;0.10;0.10;;;14.60;87.70;;;;;;4901983;29;20123;-88
2023/12/11 15:51:14;;;;;;;0.10;0.10;;;14.60;87.60;;;;;;4884219;29;20423;-87
2023/12/11 15:53:40;;;;;;;0.00;0.00;;;14.60;87.70;;;;;;4882498;29;20088;-88
2023/12/11 15:56:08;;;;;;;0.10;0.10;;;14.60;87.80;;;;;;4900781;29;20527;-87
2023/12/11 15:58:33;;;;;;;0.10;0.10;;;14.50;87.70;;;;;;4884050;29;20088;-88
2023/12/11 16:00:59;;;;;;;0.10;0.10;;;14.50;87.60;;;;;;4901650;29;20462;-88
2023/12/11 16:03:24;;;;;;;0.10;0.10;;;14.50;87.60;;;;;;4896751;29;20040;-87
2023/12/11 16:05:52;;;;;;;0.10;0.10;;;14.50;87.70;;;;;;4883601;29;20029;-88
2023/12/11 16:08:18;;;;;;;0.05;0.05;;;14.50;87.90;;;;;;4887339;29;20029;-87
2023/12/11 16:10:43;;;;;;;0.10;0.10;;;14.50;87.80;;;;;;4884219;29;20033;-86
2023/12/11 16:13:09;;;;;;;0.10;0.10;;;14.50;87.40;;;;;;4891829;29;20040;-87
2023/12/11 16:15:34;;;;;;;0.10;0.10;;;14.40;87.60;;;;;;4905479;29;20063;-87
2023/12/11 16:18:00;;;;;;;0.10;0.10;;;14.40;87.70;;;;;;4904625;29;20028;-87
2023/12/11 16:20:26;;;;;;;0.10;0.10;;;14.40;87.90;;;;;;4884414;29;20084;-86
2023/12/11 16:22:51;;;;;;;0.10;0.10;;;14.30;87.80;;;;;;4898142;29;20032;-87
2023/12/11 16:25:17;;;;;;;0.10;0.10;;;14.40;88.10;;;;;;4901033;29;20039;-87
2023/12/11 16:27:42;;;;;;;0.10;0.10;;;14.40;87.90;;;;;;4896008;29;20151;-86
2023/12/11 16:30:10;;;;;;;0.10;0.10;;;14.30;88.00;;;;;;4892848;29;20064;-87
2023/12/11 16:32:35;;;;;;;0.10;0.10;;;14.30;88.10;;;;;;4877857;29;20052;-88
2023/12/11 16:35:01;;;;;;;0.10;0.10;;;14.30;88.10;;;;;;4888638;29;20377;-86
2023/12/11 16:37:26;;;;;;;0.10;0.10;;;14.30;88.40;;;;;;4882560;29;20036;-87
2023/12/11 16:39:54;;;;;;;0.10;0.10;;;14.30;88.50;;;;;;4884437;29;20028;-86
2023/12/11 16:42:20;;;;;;;0.00;0.00;;;14.30;88.30;;;;;;4886984;29;20076;-87
2023/12/11 16:44:46;;;;;;;0.10;0.10;;;14.20;88.40;;;;;;4900221;29;20107;-84
2023/12/11 16:47:12;;;;;;;0.00;0.00;;;14.20;88.40;;;;;;4898145;29;20055;-82
2023/12/11 16:49:38;;;;;;;0.10;0.10;;;14.20;88.60;;;;;;4882913;29;20081;-84
2023/12/11 16:52:04;;;;;;;0.10;0.10;;;14.10;88.60;;;;;;4897699;29;20036;-83
2023/12/11 16:54:29;;;;;;;0.10;0.10;;;14.10;89.00;;;;;;4882655;29;20408;-82
2023/12/11 16:56:55;;;;;;;0.10;0.10;;;14.10;88.90;;;;;;4897073;29;20061;-83
2023/12/11 16:59:21;;;;;;;0.00;0.00;;;14.10;89.00;;;;;;4894692;29;20032;-84
2023/12/11 17:01:47;;;;;;;0.08;0.08;;;14.10;89.10;;;;;;4900575;29;20037;-84
2023/12/11 17:04:13;;;;;;;0.10;0.10;;;14.10;89.10;;;;;;4896482;29;20029;-84
2023/12/11 17:06:38;;;;;;;0.10;0.10;;;14.10;89.20;;;;;;4891766;29;20037;-85
2023/12/11 17:09:04;;;;;;;0.10;0.10;;;14.10;89.30;;;;;;4894958;29;20021;-84
2023/12/11 17:11:34;;;;;;;0.10;0.10;;;14.10;89.30;;;;;;4880398;29;20036;-84
2023/12/11 17:14:01;;;;;;;0.10;0.10;;;14.00;89.40;;;;;;4878899;29;20496;-83
2023/12/11 17:16:27;;;;;;;0.10;0.10;;;14.10;89.40;;;;;;4880059;29;20043;-84
2023/12/11 17:18:52;;;;;;;0.10;0.10;;;14.10;89.40;;;;;;4897828;29;20036;-83
2023/12/11 17:21:21;;;;;;;0.00;0.00;;;14.10;89.50;;;;;;4880904;29;20028;-84
2023/12/11 17:23:46;;;;;;;0.10;0.10;;;14.00;89.50;;;;;;4894575;29;20032;-79
2023/12/11 17:26:12;;;;;;;0.10;0.10;;;14.00;89.60;;;;;;4889954;29;20036;-80
2023/12/11 17:28:37;;;;;;;0.00;0.00;;;14.00;89.80;;;;;;4891554;29;20115;-80
2023/12/11 17:31:03;;;;;;;0.10;0.10;;;14.00;90.10;;;;;;4899203;29;20150;-79
2023/12/11 17:33:29;;;;;;;0.10;0.10;;;14.00;90.10;;;;;;4899434;29;20028;-79
2023/12/11 17:35:54;;;;;;;0.10;0.10;;;13.90;90.20;;;;;;4892392;29;20508;-77
2023/12/11 17:38:20;;;;;;;0.10;0.10;;;14.00;90.20;;;;;;4898948;29;20388;-80
2023/12/11 17:40:46;;;;;;;0.10;0.10;;;14.00;90.40;;;;;;4892751;29;20107;-79
2023/12/11 17:43:11;;;;;;;0.00;0.00;;;14.10;90.30;;;;;;4892663;29;20029;-79
2023/12/11 17:45:38;;;;;;;0.10;0.10;;;14.10;90.30;;;;;;4894205;29;20029;-79
2023/12/11 17:48:04;;;;;;;0.10;0.10;;;14.00;90.20;;;;;;4895193;29;20025;-79
2023/12/11 17:50:30;;;;;;;0.10;0.10;;;14.10;90.20;;;;;;4882021;29;20076;-79
2023/12/11 17:52:55;;;;;;;0.10;0.10;;;14.00;90.30;;;;;;4881951;29;20036;-78
2023/12/11 17:55:21;;;;;;;0.10;0.10;;;14.10;90.30;;;;;;4881585;29;20028;-79
2023/12/11 17:57:47;;;;;;;0.10;0.10;;;14.10;90.40;;;;;;4880000;29;20039;-80
2023/12/11 18:00:14;;;;;;;0.10;0.10;;;14.00;90.30;;;;;;4892510;29;20515;-79
2023/12/11 18:02:40;;;;;;;0.10;0.10;;;14.00;90.40;;;;;;4866485;29;20084;-82
2023/12/11 18:05:06;;;;;;;0.10;0.10;;;14.00;90.50;;;;;;4896071;29;20060;-81
2023/12/11 18:07:32;;;;;;;0.10;0.10;;;14.00;90.50;;;;;;4894052;29;20036;-80
2023/12/11 18:09:57;;;;;;;0.10;0.10;;;14.00;90.60;;;;;;4885867;29;20033;-82
2023/12/11 18:12:24;;;;;;;0.10;0.10;;;14.00;90.50;;;;;;4888036;29;20135;-84
2023/12/11 18:14:50;;;;;;;0.10;0.10;;;14.00;90.40;;;;;;4892470;29;20033;-82
2023/12/11 18:17:16;;;;;;;0.10;0.10;;;14.00;90.50;;;;;;4882453;29;20097;-81
2023/12/11 18:19:48;;;;;;;0.10;0.10;;;13.90;90.50;;;;;;4883648;29;21004;-81
2023/12/11 18:22:14;;;;;;;0.10;0.10;;;13.90;90.50;;;;;;4895859;29;20084;-83
2023/12/11 18:24:39;;;;;;;0.10;0.10;;;13.90;90.60;;;;;;4899624;29;20523;-77
2023/12/11 18:27:05;;;;;;;0.10;0.10;;;13.90;90.60;;;;;;4901432;29;20039;-79
2023/12/11 18:29:30;;;;;;;0.10;0.10;;;13.90;90.70;;;;;;4903244;29;20060;-80
2023/12/11 18:31:56;;;;;;;0.10;0.10;;;13.90;90.70;;;;;;4877085;29;20025;-76
2023/12/11 18:34:21;;;;;;;0.10;0.10;;;14.00;90.70;;;;;;4904274;29;20029;-81
2023/12/11 18:36:47;;;;;;;0.10;0.10;;;13.90;90.70;;;;;;4881917;29;20072;-77
2023/12/11 18:39:13;;;;;;;0.10;0.10;;;14.00;90.70;;;;;;4896887;29;20029;-80
2023/12/11 18:41:42;;;;;;;0.10;0.10;;;14.00;90.70;;;;;;4898267;29;20079;-79
2023/12/11 18:44:09;;;;;;;0.10;0.10;;;14.00;90.70;;;;;;4899337;29;20412;-79
2023/12/11 18:46:35;;;;;;;0.10;0.10;;;14.00;90.50;;;;;;4898978;29;20492;-78
2023/12/11 18:49:01;;;;;;;0.10;0.10;;;14.00;90.60;;;;;;4889864;29;20056;-78
2023/12/11 18:51:31;;;;;;;0.10;0.10;;;14.00;90.60;;;;;;4902911;29;20039;-79
2023/12/11 18:53:57;;;;;;;0.00;0.00;;;14.00;90.70;;;;;;4902675;29;20020;-79
2023/12/11 18:56:27;;;;;;;0.05;0.05;;;14.00;90.70;;;;;;4899669;29;20029;-78
2023/12/11 18:58:53;;;;;;;0.10;0.10;;;14.00;90.60;;;;;;4902620;29;20559;-77
2023/12/11 19:01:19;;;;;;;0.10;0.10;;;14.00;90.60;;;;;;4883420;29;20124;-77
2023/12/11 19:03:45;;;;;;;0.08;0.08;;;14.00;90.70;;;;;;4885594;29;20029;-81
2023/12/11 19:06:11;;;;;;;0.10;0.10;;;14.00;90.80;;;;;;4901375;29;20043;-80
2023/12/11 19:08:37;;;;;;;0.10;0.10;;;14.00;90.80;;;;;;4880775;29;20032;-77
2023/12/11 19:11:04;;;;;;;0.10;0.10;;;14.00;90.60;;;;;;4902984;29;20033;-77
2023/12/11 19:13:30;;;;;;;0.10;0.10;;;14.00;90.50;;;;;;4902423;29;20021;-78